sensor_id;sensor_type;location;lat;lon;timestamp;pressure;altitude;pressure_sealevel;temperature;humidity
75359;BME280;64046;51.978;5.934;2022-12-08T00:02:22;100959.03;;;9.22;94.00
75359;BME280;64046;51.978;5.934;2022-12-08T00:04:51;100950.59;;;9.14;94.18
75359;BME280;64046;51.978;5.934;2022-12-08T00:07:33;100938.41;;;9.14;93.98
75359;BME280;64046;51.978;5.934;2022-12-08T00:10:15;100938.28;;;9.17;93.83
75359;BME280;64046;51.978;5.934;2022-12-08T00:12:44;100940.06;;;9.17;93.92
75359;BME280;64046;51.978;5.934;2022-12-08T00:15:13;100938.22;;;9.19;93.79
75359;BME280;64046;51.978;5.934;2022-12-08T00:17:45;100934.19;;;9.34;93.59
75359;BME280;64046;51.978;5.934;2022-12-08T00:20:14;100931.28;;;9.18;94.02
75359;BME280;64046;51.978;5.934;2022-12-08T00:22:44;100925.25;;;9.16;94.02
75359;BME280;64046;51.978;5.934;2022-12-08T00:25:13;100923.44;;;9.18;94.07
75359;BME280;64046;51.978;5.934;2022-12-08T00:27:42;100918.97;;;9.22;93.90
75359;BME280;64046;51.978;5.934;2022-12-08T00:30:12;100911.06;;;9.23;94.12
75359;BME280;64046;51.978;5.934;2022-12-08T00:32:41;100909.47;;;9.19;94.13
75359;BME280;64046;51.978;5.934;2022-12-08T00:35:13;100908.97;;;9.33;94.02
75359;BME280;64046;51.978;5.934;2022-12-08T00:37:42;100904.34;;;9.16;94.21
75359;BME280;64046;51.978;5.934;2022-12-08T00:40:11;100904.53;;;9.11;94.58
75359;BME280;64046;51.978;5.934;2022-12-08T00:42:40;100898.59;;;9.06;94.78
75359;BME280;64046;51.978;5.934;2022-12-08T00:45:10;100888.91;;;9.10;94.90
75359;BME280;64046;51.978;5.934;2022-12-08T00:47:40;100885.88;;;8.97;95.16
75359;BME280;64046;51.978;5.934;2022-12-08T00:50:11;100895.41;;;8.98;95.08
75359;BME280;64046;51.978;5.934;2022-12-08T00:52:41;100888.31;;;9.02;94.93
75359;BME280;64046;51.978;5.934;2022-12-08T00:55:10;100888.31;;;9.02;94.88
75359;BME280;64046;51.978;5.934;2022-12-08T00:57:39;100886.44;;;9.05;94.85
75359;BME280;64046;51.978;5.934;2022-12-08T01:00:09;100886.00;;;9.17;94.72
75359;BME280;64046;51.978;5.934;2022-12-08T01:02:39;100886.72;;;9.21;94.57
75359;BME280;64046;51.978;5.934;2022-12-08T01:05:08;100879.81;;;9.20;94.51
75359;BME280;64046;51.978;5.934;2022-12-08T01:07:40;100881.88;;;9.34;94.17
75359;BME280;64046;51.978;5.934;2022-12-08T01:10:09;100886.94;;;9.15;94.77
75359;BME280;64046;51.978;5.934;2022-12-08T01:12:39;100880.06;;;9.12;94.81
75359;BME280;64046;51.978;5.934;2022-12-08T01:15:08;100880.72;;;9.19;94.94
75359;BME280;64046;51.978;5.934;2022-12-08T01:17:38;100872.22;;;9.12;94.86
75359;BME280;64046;51.978;5.934;2022-12-08T01:20:08;100877.31;;;9.17;94.75
75359;BME280;64046;51.978;5.934;2022-12-08T01:22:39;100874.91;;;9.11;95.03
75359;BME280;64046;51.978;5.934;2022-12-08T01:25:09;100879.28;;;9.10;95.09
75359;BME280;64046;51.978;5.934;2022-12-08T01:27:38;100882.81;;;9.09;95.18
75359;BME280;64046;51.978;5.934;2022-12-08T01:30:08;100883.44;;;9.16;95.67
75359;BME280;64046;51.978;5.934;2022-12-08T01:32:38;100881.22;;;9.05;95.94
75359;BME280;64046;51.978;5.934;2022-12-08T01:35:08;100876.63;;;9.12;96.00
75359;BME280;64046;51.978;5.934;2022-12-08T01:37:41;100871.91;;;9.22;96.03
75359;BME280;64046;51.978;5.934;2022-12-08T01:40:11;100863.50;;;9.13;96.17
75359;BME280;64046;51.978;5.934;2022-12-08T01:42:40;100872.09;;;9.17;96.15
75359;BME280;64046;51.978;5.934;2022-12-08T01:45:14;100860.88;;;9.35;96.01
75359;BME280;64046;51.978;5.934;2022-12-08T01:47:48;100866.03;;;9.39;96.16
75359;BME280;64046;51.978;5.934;2022-12-08T01:50:19;100862.78;;;9.32;96.66
75359;BME280;64046;51.978;5.934;2022-12-08T01:52:54;100869.66;;;9.34;96.58
75359;BME280;64046;51.978;5.934;2022-12-08T01:55:29;100861.69;;;9.38;96.62
75359;BME280;64046;51.978;5.934;2022-12-08T01:58:05;100855.66;;;9.35;96.81
75359;BME280;64046;51.978;5.934;2022-12-08T02:00:36;100853.81;;;9.15;97.29
75359;BME280;64046;51.978;5.934;2022-12-08T02:03:08;100847.22;;;9.29;97.25
75359;BME280;64046;51.978;5.934;2022-12-08T02:05:40;100841.38;;;9.22;97.62
75359;BME280;64046;51.978;5.934;2022-12-08T02:08:12;100847.03;;;9.33;96.99
75359;BME280;64046;51.978;5.934;2022-12-08T02:10:42;100834.53;;;9.18;97.82
75359;BME280;64046;51.978;5.934;2022-12-08T02:13:14;100841.13;;;9.28;97.80
75359;BME280;64046;51.978;5.934;2022-12-08T02:15:53;100831.97;;;9.40;97.29
75359;BME280;64046;51.978;5.934;2022-12-08T02:18:36;100837.78;;;9.47;97.08
75359;BME280;64046;51.978;5.934;2022-12-08T02:21:10;100843.28;;;9.41;97.53
75359;BME280;64046;51.978;5.934;2022-12-08T02:23:52;100845.75;;;9.44;97.23
75359;BME280;64046;51.978;5.934;2022-12-08T02:26:50;100836.69;;;9.52;96.59
75359;BME280;64046;51.978;5.934;2022-12-08T02:32:41;100819.41;;;9.48;96.72
75359;BME280;64046;51.978;5.934;2022-12-08T02:35:17;100824.91;;;9.42;97.46
75359;BME280;64046;51.978;5.934;2022-12-08T02:37:55;100826.81;;;9.39;98.06
75359;BME280;64046;51.978;5.934;2022-12-08T02:40:30;100825.09;;;9.38;98.09
75359;BME280;64046;51.978;5.934;2022-12-08T02:43:06;100817.19;;;9.39;98.07
75359;BME280;64046;51.978;5.934;2022-12-08T02:45:40;100819.06;;;9.35;98.28
75359;BME280;64046;51.978;5.934;2022-12-08T02:48:13;100816.63;;;9.31;98.41
75359;BME280;64046;51.978;5.934;2022-12-08T02:50:45;100814.56;;;9.39;98.34
75359;BME280;64046;51.978;5.934;2022-12-08T02:53:14;100806.22;;;9.29;98.43
75359;BME280;64046;51.978;5.934;2022-12-08T02:55:48;100808.13;;;9.48;98.04
75359;BME280;64046;51.978;5.934;2022-12-08T02:58:42;100805.09;;;9.59;97.27
75359;BME280;64046;51.978;5.934;2022-12-08T03:01:27;100799.84;;;9.59;97.14
75359;BME280;64046;51.978;5.934;2022-12-08T03:04:05;100797.72;;;9.46;98.15
75359;BME280;64046;51.978;5.934;2022-12-08T03:06:44;100788.16;;;9.45;97.80
75359;BME280;64046;51.978;5.934;2022-12-08T03:09:21;100786.75;;;9.37;98.85
75359;BME280;64046;51.978;5.934;2022-12-08T03:11:56;100773.50;;;9.41;98.73
75359;BME280;64046;51.978;5.934;2022-12-08T03:14:28;100777.69;;;9.45;98.46
75359;BME280;64046;51.978;5.934;2022-12-08T03:16:59;100774.53;;;9.59;97.76
75359;BME280;64046;51.978;5.934;2022-12-08T03:19:32;100767.63;;;9.79;96.37
75359;BME280;64046;51.978;5.934;2022-12-08T03:22:06;100762.97;;;9.65;97.54
75359;BME280;64046;51.978;5.934;2022-12-08T03:24:37;100753.53;;;9.61;98.07
75359;BME280;64046;51.978;5.934;2022-12-08T03:27:10;100758.69;;;9.62;97.97
75359;BME280;64046;51.978;5.934;2022-12-08T03:29:40;100756.66;;;9.48;98.15
75359;BME280;64046;51.978;5.934;2022-12-08T03:32:14;100754.28;;;9.64;97.94
75359;BME280;64046;51.978;5.934;2022-12-08T03:34:47;100749.94;;;9.63;98.15
75359;BME280;64046;51.978;5.934;2022-12-08T03:37:20;100752.63;;;9.62;98.17
75359;BME280;64046;51.978;5.934;2022-12-08T03:39:49;100752.34;;;9.47;98.44
75359;BME280;64046;51.978;5.934;2022-12-08T03:42:18;100751.53;;;9.45;98.38
75359;BME280;64046;51.978;5.934;2022-12-08T03:44:48;100751.75;;;9.41;98.57
75359;BME280;64046;51.978;5.934;2022-12-08T03:47:17;100743.88;;;9.41;98.73
75359;BME280;64046;51.978;5.934;2022-12-08T03:49:46;100741.00;;;9.47;98.74
75359;BME280;64046;51.978;5.934;2022-12-08T03:52:15;100736.72;;;9.46;98.70
75359;BME280;64046;51.978;5.934;2022-12-08T03:54:47;100733.34;;;9.64;98.17
75359;BME280;64046;51.978;5.934;2022-12-08T03:57:16;100732.25;;;9.48;98.36
75359;BME280;64046;51.978;5.934;2022-12-08T03:59:46;100735.78;;;9.47;98.53
75359;BME280;64046;51.978;5.934;2022-12-08T04:02:16;100736.72;;;9.46;98.54
75359;BME280;64046;51.978;5.934;2022-12-08T04:04:45;100727.16;;;9.45;98.50
75359;BME280;64046;51.978;5.934;2022-12-08T04:07:14;100722.06;;;9.42;98.42
75359;BME280;64046;51.978;5.934;2022-12-08T04:09:43;100724.75;;;9.40;98.66
75359;BME280;64046;51.978;5.934;2022-12-08T04:12:15;100713.75;;;9.52;98.17
75359;BME280;64046;51.978;5.934;2022-12-08T04:14:44;100719.03;;;9.30;98.29
75359;BME280;64046;51.978;5.934;2022-12-08T04:17:13;100720.19;;;9.23;98.45
75359;BME280;64046;51.978;5.934;2022-12-08T04:19:42;100718.47;;;9.22;98.49
75359;BME280;64046;51.978;5.934;2022-12-08T04:22:12;100710.66;;;9.22;98.39
75359;BME280;64046;51.978;5.934;2022-12-08T04:24:41;100714.84;;;9.26;98.23
75359;BME280;64046;51.978;5.934;2022-12-08T04:27:10;100716.56;;;9.27;98.00
75359;BME280;64046;51.978;5.934;2022-12-08T04:29:42;100714.09;;;9.45;97.82
75359;BME280;64046;51.978;5.934;2022-12-08T04:32:11;100709.72;;;9.23;97.76
75359;BME280;64046;51.978;5.934;2022-12-08T04:34:40;100703.84;;;9.18;98.40
75359;BME280;64046;51.978;5.934;2022-12-08T04:37:09;100710.84;;;9.17;98.32
75359;BME280;64046;51.978;5.934;2022-12-08T04:39:38;100703.00;;;9.17;98.20
75359;BME280;64046;51.978;5.934;2022-12-08T04:42:08;100707.47;;;9.14;98.36
75359;BME280;64046;51.978;5.934;2022-12-08T04:44:37;100703.31;;;9.10;98.71
75359;BME280;64046;51.978;5.934;2022-12-08T04:47:09;100707.06;;;9.25;98.01
75359;BME280;64046;51.978;5.934;2022-12-08T04:49:38;100699.00;;;9.09;98.17
75359;BME280;64046;51.978;5.934;2022-12-08T04:52:07;100704.22;;;9.09;98.24
75359;BME280;64046;51.978;5.934;2022-12-08T04:54:36;100706.63;;;9.13;98.21
75359;BME280;64046;51.978;5.934;2022-12-08T04:57:06;100709.44;;;9.09;98.24
75359;BME280;64046;51.978;5.934;2022-12-08T04:59:35;100704.09;;;9.12;98.59
75359;BME280;64046;51.978;5.934;2022-12-08T05:02:04;100704.03;;;9.13;98.62
75359;BME280;64046;51.978;5.934;2022-12-08T05:04:36;100699.03;;;9.29;98.71
75359;BME280;64046;51.978;5.934;2022-12-08T05:07:05;100700.50;;;9.14;98.97
75359;BME280;64046;51.978;5.934;2022-12-08T05:09:35;100697.16;;;9.11;99.41
75359;BME280;64046;51.978;5.934;2022-12-08T05:12:04;100696.19;;;9.13;99.47
75359;BME280;64046;51.978;5.934;2022-12-08T05:14:33;100698.72;;;9.15;99.46
75359;BME280;64046;51.978;5.934;2022-12-08T05:17:03;100695.34;;;9.13;99.51
75359;BME280;64046;51.978;5.934;2022-12-08T05:19:32;100692.78;;;9.11;99.49
75359;BME280;64046;51.978;5.934;2022-12-08T05:22:04;100690.53;;;9.24;99.64
75359;BME280;64046;51.978;5.934;2022-12-08T05:24:33;100688.53;;;9.09;99.86
75359;BME280;64046;51.978;5.934;2022-12-08T05:27:03;100678.66;;;9.15;99.51
75359;BME280;64046;51.978;5.934;2022-12-08T05:29:32;100681.34;;;9.14;99.48
75359;BME280;64046;51.978;5.934;2022-12-08T05:32:01;100676.25;;;9.11;99.66
75359;BME280;64046;51.978;5.934;2022-12-08T05:34:31;100683.94;;;9.14;99.66
75359;BME280;64046;51.978;5.934;2022-12-08T05:37:00;100683.19;;;9.12;99.75
75359;BME280;64046;51.978;5.934;2022-12-08T05:39:32;100679.13;;;9.25;99.40
75359;BME280;64046;51.978;5.934;2022-12-08T05:42:01;100675.41;;;9.10;99.71
75359;BME280;64046;51.978;5.934;2022-12-08T05:44:30;100681.72;;;9.05;99.79
75359;BME280;64046;51.978;5.934;2022-12-08T05:46:59;100675.75;;;9.01;100.00
75359;BME280;64046;51.978;5.934;2022-12-08T05:49:29;100673.94;;;9.03;99.85
75359;BME280;64046;51.978;5.934;2022-12-08T05:51:58;100677.53;;;9.00;99.88
75359;BME280;64046;51.978;5.934;2022-12-08T05:54:27;100682.81;;;8.99;99.90
75359;BME280;64046;51.978;5.934;2022-12-08T05:56:59;100678.72;;;9.14;99.77
75359;BME280;64046;51.978;5.934;2022-12-08T05:59:28;100677.47;;;9.02;99.90
75359;BME280;64046;51.978;5.934;2022-12-08T06:01:57;100674.66;;;9.07;99.91
75359;BME280;64046;51.978;5.934;2022-12-08T06:04:27;100680.44;;;9.15;99.52
75359;BME280;64046;51.978;5.934;2022-12-08T06:06:56;100674.38;;;9.14;99.54
75359;BME280;64046;51.978;5.934;2022-12-08T06:09:25;100671.94;;;9.10;98.60
75359;BME280;64046;51.978;5.934;2022-12-08T06:11:54;100683.59;;;9.01;98.22
75359;BME280;64046;51.978;5.934;2022-12-08T06:14:26;100678.28;;;9.04;97.80
75359;BME280;64046;51.978;5.934;2022-12-08T06:16:55;100664.53;;;8.77;98.19
75359;BME280;64046;51.978;5.934;2022-12-08T06:19:24;100668.06;;;8.76;98.17
75359;BME280;64046;51.978;5.934;2022-12-08T06:21:54;100666.41;;;8.73;98.15
75359;BME280;64046;51.978;5.934;2022-12-08T06:24:23;100667.38;;;8.71;98.04
75359;BME280;64046;51.978;5.934;2022-12-08T06:26:52;100676.91;;;8.72;97.87
75359;BME280;64046;51.978;5.934;2022-12-08T06:29:21;100675.16;;;8.72;97.99
75359;BME280;64046;51.978;5.934;2022-12-08T06:31:53;100672.78;;;8.88;97.35
75359;BME280;64046;51.978;5.934;2022-12-08T06:34:22;100678.91;;;8.65;97.49
75359;BME280;64046;51.978;5.934;2022-12-08T06:36:52;100676.41;;;8.62;97.56
75359;BME280;64046;51.978;5.934;2022-12-08T06:39:21;100672.97;;;8.61;97.31
75359;BME280;64046;51.978;5.934;2022-12-08T06:41:50;100666.41;;;8.51;97.63
75359;BME280;64046;51.978;5.934;2022-12-08T06:44:33;100668.31;;;8.46;97.98
75359;BME280;64046;51.978;5.934;2022-12-08T06:47:04;100673.09;;;8.58;97.82
75359;BME280;64046;51.978;5.934;2022-12-08T06:49:34;100683.16;;;8.45;97.96
75359;BME280;64046;51.978;5.934;2022-12-08T06:52:03;100674.25;;;8.49;98.11
75359;BME280;64046;51.978;5.934;2022-12-08T06:54:32;100675.31;;;8.45;98.15
75359;BME280;64046;51.978;5.934;2022-12-08T06:57:01;100670.81;;;8.49;97.98
75359;BME280;64046;51.978;5.934;2022-12-08T06:59:31;100679.53;;;8.48;98.00
75359;BME280;64046;51.978;5.934;2022-12-08T07:02:00;100675.91;;;8.52;98.06
75359;BME280;64046;51.978;5.934;2022-12-08T07:07:01;100681.88;;;8.56;98.12
75359;BME280;64046;51.978;5.934;2022-12-08T07:09:30;100681.88;;;8.56;97.98
75359;BME280;64046;51.978;5.934;2022-12-08T07:11:59;100680.16;;;8.55;97.89
75359;BME280;64046;51.978;5.934;2022-12-08T07:14:28;100686.22;;;8.57;98.29
75359;BME280;64046;51.978;5.934;2022-12-08T07:16:58;100690.44;;;8.59;98.28
75359;BME280;64046;51.978;5.934;2022-12-08T07:19:27;100686.09;;;8.60;98.43
75359;BME280;64046;51.978;5.934;2022-12-08T07:21:59;100688.09;;;8.75;98.44
75359;BME280;64046;51.978;5.934;2022-12-08T07:24:28;100683.41;;;8.61;98.70
75359;BME280;64046;51.978;5.934;2022-12-08T07:26:57;100692.03;;;8.63;98.78
75359;BME280;64046;51.978;5.934;2022-12-08T07:29:26;100686.09;;;8.60;98.93
75359;BME280;64046;51.978;5.934;2022-12-08T07:31:55;100693.06;;;8.59;99.05
75359;BME280;64046;51.978;5.934;2022-12-08T07:34:25;100691.25;;;8.61;99.09
75359;BME280;64046;51.978;5.934;2022-12-08T07:36:54;100684.94;;;8.67;98.97
75359;BME280;64046;51.978;5.934;2022-12-08T07:39:26;100673.78;;;8.86;98.71
75359;BME280;64046;51.978;5.934;2022-12-08T07:41:55;100671.38;;;8.79;98.76
75359;BME280;64046;51.978;5.934;2022-12-08T07:44:26;100668.78;;;8.79;98.08
75359;BME280;64046;51.978;5.934;2022-12-08T07:46:55;100680.44;;;8.71;97.92
75359;BME280;64046;51.978;5.934;2022-12-08T07:49:24;100673.69;;;8.65;98.38
75359;BME280;64046;51.978;5.934;2022-12-08T07:51:53;100680.69;;;8.64;98.54
75359;BME280;64046;51.978;5.934;2022-12-08T07:54:23;100678.91;;;8.65;98.71
75359;BME280;64046;51.978;5.934;2022-12-08T07:56:56;100677.22;;;8.86;98.34
75359;BME280;64046;51.978;5.934;2022-12-08T07:59:26;100678.72;;;8.70;98.48
75359;BME280;64046;51.978;5.934;2022-12-08T08:01:55;100678.72;;;8.70;98.50
75359;BME280;64046;51.978;5.934;2022-12-08T08:04:24;100676.09;;;8.70;98.38
75359;BME280;64046;51.978;5.934;2022-12-08T08:06:53;100674.19;;;8.75;98.23
75359;BME280;64046;51.978;5.934;2022-12-08T08:09:22;100667.19;;;8.75;98.16
75359;BME280;64046;51.978;5.934;2022-12-08T08:11:51;100670.78;;;8.73;98.03
75359;BME280;64046;51.978;5.934;2022-12-08T08:14:23;100681.78;;;8.81;98.31
75359;BME280;64046;51.978;5.934;2022-12-08T08:16:52;100686.16;;;8.58;98.79
75359;BME280;64046;51.978;5.934;2022-12-08T08:19:22;100684.38;;;8.59;98.70
75359;BME280;64046;51.978;5.934;2022-12-08T08:21:51;100681.63;;;8.62;98.75
75359;BME280;64046;51.978;5.934;2022-12-08T08:24:20;100678.84;;;8.66;98.80
75359;BME280;64046;51.978;5.934;2022-12-08T08:26:50;100671.44;;;8.78;98.29
75359;BME280;64046;51.978;5.934;2022-12-08T08:29:23;100682.50;;;9.07;97.41
75359;BME280;64046;51.978;5.934;2022-12-08T08:31:52;100681.28;;;8.93;97.39
75359;BME280;64046;51.978;5.934;2022-12-08T08:34:21;100682.13;;;8.94;97.28
75359;BME280;64046;51.978;5.934;2022-12-08T08:36:50;100688.16;;;8.96;96.93
75359;BME280;64046;51.978;5.934;2022-12-08T08:39:19;100684.81;;;8.92;97.20
75359;BME280;64046;51.978;5.934;2022-12-08T08:41:49;100689.00;;;8.96;97.45
75359;BME280;64046;51.978;5.934;2022-12-08T08:44:18;100693.22;;;9.00;96.93
75359;BME280;64046;51.978;5.934;2022-12-08T08:46:49;100698.31;;;9.26;95.96
75359;BME280;64046;51.978;5.934;2022-12-08T08:49:19;100691.97;;;9.09;96.26
75359;BME280;64046;51.978;5.934;2022-12-08T08:51:48;100696.38;;;9.09;96.23
75359;BME280;64046;51.978;5.934;2022-12-08T08:54:17;100689.50;;;9.06;96.18
75359;BME280;64046;51.978;5.934;2022-12-08T08:56:46;100694.72;;;9.06;95.73
75359;BME280;64046;51.978;5.934;2022-12-08T08:59:16;100694.09;;;8.99;95.81
75359;BME280;64046;51.978;5.934;2022-12-08T09:01:45;100692.72;;;8.91;95.76
75359;BME280;64046;51.978;5.934;2022-12-08T09:04:17;100695.34;;;9.13;95.51
75359;BME280;64046;51.978;5.934;2022-12-08T09:06:46;100694.91;;;9.02;95.28
75359;BME280;64046;51.978;5.934;2022-12-08T09:09:16;100696.25;;;9.12;94.95
75359;BME280;64046;51.978;5.934;2022-12-08T09:11:45;100692.19;;;9.05;94.93
75359;BME280;64046;51.978;5.934;2022-12-08T09:14:14;100691.44;;;9.01;94.87
75359;BME280;64046;51.978;5.934;2022-12-08T09:16:43;100687.84;;;9.04;95.16
75359;BME280;64046;51.978;5.934;2022-12-08T09:19:12;100696.19;;;9.13;94.99
75359;BME280;64046;51.978;5.934;2022-12-08T09:21:44;100683.06;;;9.35;93.97
75359;BME280;64046;51.978;5.934;2022-12-08T09:24:14;100692.78;;;9.11;93.81
75359;BME280;64046;51.978;5.934;2022-12-08T09:26:44;100695.56;;;9.07;94.24
75359;BME280;64046;51.978;5.934;2022-12-08T09:29:13;100692.00;;;8.87;94.56
75359;BME280;64046;51.978;5.934;2022-12-08T09:31:42;100697.09;;;8.90;94.88
75359;BME280;64046;51.978;5.934;2022-12-08T09:34:12;100704.25;;;8.85;94.66
75359;BME280;64046;51.978;5.934;2022-12-08T09:36:44;100706.72;;;8.90;94.94
75359;BME280;64046;51.978;5.934;2022-12-08T09:39:13;100696.09;;;8.71;95.37
75359;BME280;64046;51.978;5.934;2022-12-08T09:41:44;100700.69;;;8.88;95.26
75359;BME280;64046;51.978;5.934;2022-12-08T09:44:42;100705.94;;;9.10;94.70
75359;BME280;64046;51.978;5.934;2022-12-08T09:47:19;100703.72;;;8.99;94.96
75359;BME280;64046;51.978;5.934;2022-12-08T09:49:54;100707.38;;;8.95;95.34
75359;BME280;64046;51.978;5.934;2022-12-08T09:52:32;100706.53;;;8.94;95.09
75359;BME280;64046;51.978;5.934;2022-12-08T09:55:11;100705.66;;;8.94;95.02
75359;BME280;64046;51.978;5.934;2022-12-08T09:57:42;100704.69;;;8.74;94.85
75359;BME280;64046;51.978;5.934;2022-12-08T10:00:12;100706.56;;;8.71;95.37
75359;BME280;64046;51.978;5.934;2022-12-08T10:02:44;100706.75;;;8.66;95.49
75359;BME280;64046;51.978;5.934;2022-12-08T10:05:14;100704.69;;;8.51;95.91
75359;BME280;64046;51.978;5.934;2022-12-08T10:07:48;100707.56;;;8.66;96.02
75359;BME280;64046;51.978;5.934;2022-12-08T10:10:29;100704.69;;;8.74;95.83
75359;BME280;64046;51.978;5.934;2022-12-08T10:13:05;100696.72;;;8.77;95.85
75359;BME280;64046;51.978;5.934;2022-12-08T10:15:39;100691.31;;;8.82;95.83
75359;BME280;64046;51.978;5.934;2022-12-08T10:18:15;100692.84;;;8.88;95.65
75359;BME280;64046;51.978;5.934;2022-12-08T10:20:47;100679.78;;;8.88;95.81
75359;BME280;64046;51.978;5.934;2022-12-08T10:23:32;100684.06;;;9.11;94.58
75359;BME280;64046;51.978;5.934;2022-12-08T10:26:03;100677.72;;;8.96;95.38
75359;BME280;64046;51.978;5.934;2022-12-08T10:28:33;100670.00;;;8.93;95.47
75359;BME280;64046;51.978;5.934;2022-12-08T10:31:02;100670.84;;;8.93;95.44
75359;BME280;64046;51.978;5.934;2022-12-08T10:33:32;100669.50;;;9.05;95.06
75359;BME280;64046;51.978;5.934;2022-12-08T10:36:02;100666.94;;;9.04;95.44
75359;BME280;64046;51.978;5.934;2022-12-08T10:38:35;100662.81;;;9.20;94.50
75359;BME280;64046;51.978;5.934;2022-12-08T10:41:09;100666.41;;;9.17;94.66
75359;BME280;64046;51.978;5.934;2022-12-08T10:43:46;100663.44;;;9.25;94.36
75359;BME280;64046;51.978;5.934;2022-12-08T10:46:17;100657.50;;;9.22;94.37
75359;BME280;64046;51.978;5.934;2022-12-08T10:48:52;100662.34;;;9.31;93.65
75359;BME280;64046;51.978;5.934;2022-12-08T10:51:25;100665.22;;;9.25;93.66
75359;BME280;64046;51.978;5.934;2022-12-08T10:53:58;100658.97;;;9.29;93.26
75359;BME280;64046;51.978;5.934;2022-12-08T10:56:29;100658.22;;;9.25;93.64
75359;BME280;64046;51.978;5.934;2022-12-08T10:59:11;100659.03;;;9.48;92.75
75359;BME280;64046;51.978;5.934;2022-12-08T11:01:44;100664.25;;;9.48;92.86
75359;BME280;64046;51.978;5.934;2022-12-08T11:04:16;100654.47;;;9.53;93.08
75359;BME280;64046;51.978;5.934;2022-12-08T11:06:47;100657.09;;;9.53;93.14
75359;BME280;64046;51.978;5.934;2022-12-08T11:09:34;100654.50;;;9.72;92.01
75359;BME280;64046;51.978;5.934;2022-12-08T11:12:08;100669.13;;;9.57;92.64
75359;BME280;64046;51.978;5.934;2022-12-08T11:14:47;100663.41;;;9.47;92.81
75359;BME280;64046;51.978;5.934;2022-12-08T11:17:24;100669.81;;;9.40;93.36
75359;BME280;64046;51.978;5.934;2022-12-08T11:19:57;100671.00;;;9.33;93.71
75359;BME280;64046;51.978;5.934;2022-12-08T11:22:30;100666.81;;;9.29;93.74
75359;BME280;64046;51.978;5.934;2022-12-08T11:25:09;100660.53;;;9.33;93.36
75359;BME280;64046;51.978;5.934;2022-12-08T11:27:41;100659.09;;;9.26;94.07
75359;BME280;64046;51.978;5.934;2022-12-08T11:30:13;100659.16;;;9.24;94.04
75359;BME280;64046;51.978;5.934;2022-12-08T11:32:45;100654.75;;;9.25;93.63
75359;BME280;64046;51.978;5.934;2022-12-08T11:35:21;100659.03;;;9.27;93.46
75359;BME280;64046;51.978;5.934;2022-12-08T11:37:55;100658.16;;;9.27;93.71
75359;BME280;64046;51.978;5.934;2022-12-08T11:40:31;100651.66;;;9.37;93.33
75359;BME280;64046;51.978;5.934;2022-12-08T11:43:07;100652.28;;;9.42;93.16
75359;BME280;64046;51.978;5.934;2022-12-08T11:45:42;100651.06;;;9.30;93.47
75359;BME280;64046;51.978;5.934;2022-12-08T11:48:15;100646.94;;;9.45;93.21
75359;BME280;64046;51.978;5.934;2022-12-08T11:50:48;100648.84;;;9.42;93.36
75359;BME280;64046;51.978;5.934;2022-12-08T11:53:25;100647.88;;;9.44;93.33
75359;BME280;64046;51.978;5.934;2022-12-08T11:56:02;100647.00;;;9.44;93.38
75359;BME280;64046;51.978;5.934;2022-12-08T11:58:38;100640.31;;;9.37;93.53
75359;BME280;64046;51.978;5.934;2022-12-08T12:01:17;100643.00;;;9.35;93.66
75359;BME280;64046;51.978;5.934;2022-12-08T12:03:52;100655.47;;;9.28;93.63
75359;BME280;64046;51.978;5.934;2022-12-08T12:06:38;100644.09;;;9.29;93.34
75359;BME280;64046;51.978;5.934;2022-12-08T12:09:17;100633.84;;;9.25;93.45
75359;BME280;64046;51.978;5.934;2022-12-08T12:12:00;100631.91;;;9.30;92.43
75359;BME280;64046;51.978;5.934;2022-12-08T12:15:11;100630.50;;;9.21;92.55
75359;BME280;64046;51.978;5.934;2022-12-08T12:17:47;100630.06;;;9.11;92.99
75359;BME280;64046;51.978;5.934;2022-12-08T12:20:22;100622.38;;;9.07;93.17
75359;BME280;64046;51.978;5.934;2022-12-08T12:22:56;100617.81;;;9.12;93.03
75359;BME280;64046;51.978;5.934;2022-12-08T12:25:31;100620.94;;;8.99;92.71
75359;BME280;64046;51.978;5.934;2022-12-08T12:28:05;100619.78;;;9.07;92.68
75359;BME280;64046;51.978;5.934;2022-12-08T12:30:51;100609.00;;;9.14;91.55
75359;BME280;64046;51.978;5.934;2022-12-08T12:33:22;100606.34;;;8.94;92.49
75359;BME280;64046;51.978;5.934;2022-12-08T12:35:55;100602.41;;;9.06;91.77
75359;BME280;64046;51.978;5.934;2022-12-08T12:38:28;100605.31;;;8.98;92.11
75359;BME280;64046;51.978;5.934;2022-12-08T12:41:12;100596.22;;;8.86;92.32
75359;BME280;64046;51.978;5.934;2022-12-08T12:44:11;100605.66;;;9.11;91.27
75359;BME280;64046;51.978;5.934;2022-12-08T12:46:56;100600.38;;;9.12;91.96
75359;BME280;64046;51.978;5.934;2022-12-08T12:52:46;100592.69;;;9.30;91.35
75359;BME280;64046;51.978;5.934;2022-12-08T12:55:24;100583.91;;;9.31;91.25
75359;BME280;64046;51.978;5.934;2022-12-08T12:57:55;100579.78;;;9.25;91.38
75359;BME280;64046;51.978;5.934;2022-12-08T13:00:28;100584.50;;;9.38;90.71
75359;BME280;64046;51.978;5.934;2022-12-08T13:02:57;100580.59;;;9.27;90.33
75359;BME280;64046;51.978;5.934;2022-12-08T13:05:29;100585.53;;;9.33;90.39
75359;BME280;64046;51.978;5.934;2022-12-08T13:08:01;100579.66;;;9.28;90.53
75359;BME280;64046;51.978;5.934;2022-12-08T13:10:33;100575.84;;;9.35;90.65
75359;BME280;64046;51.978;5.934;2022-12-08T13:13:15;100567.09;;;9.57;88.78
75359;BME280;64046;51.978;5.934;2022-12-08T13:15:53;100575.25;;;9.49;88.60
75359;BME280;64046;51.978;5.934;2022-12-08T13:18:25;100578.16;;;9.43;89.11
75359;BME280;64046;51.978;5.934;2022-12-08T13:21:02;100574.50;;;9.47;88.35
75359;BME280;64046;51.978;5.934;2022-12-08T13:23:43;100562.84;;;9.55;87.66
75359;BME280;64046;51.978;5.934;2022-12-08T13:26:18;100553.44;;;9.50;87.86
75359;BME280;64046;51.978;5.934;2022-12-08T13:29:15;100550.16;;;9.66;86.44
75359;BME280;64046;51.978;5.934;2022-12-08T13:31:51;100553.88;;;9.60;87.53
75359;BME280;64046;51.978;5.934;2022-12-08T13:34:32;100552.75;;;9.66;86.81
75359;BME280;64046;51.978;5.934;2022-12-08T13:37:17;100556.97;;;9.68;86.42